Time;durP1;ratioP1;P1;durP2;ratioP2;P2;SDS_P1;SDS_P2;PMS_P1;PMS_P2;Temp;Humidity;BMP_temperature;BMP_pressure;BME280_temperature;BME280_humidity;BME280_pressure;Samples;Min_cycle;Max_cycle;Signal;HPM_P1;HPM_P2
2022/02/23 00:01:14;;;;;;;19.58;11.50;;;;;;;3.67;66.05;93746.31;4997144;28;20037;-78
2022/02/23 00:03:40;;;;;;;21.65;11.88;;;;;;;3.57;66.39;93749.00;4993321;28;20526;-78
2022/02/23 00:06:06;;;;;;;18.48;10.40;;;;;;;3.54;67.01;93749.50;5007505;28;20068;-77
2022/02/23 00:08:31;;;;;;;20.95;11.52;;;;;;;3.63;66.67;93759.19;4994530;28;20073;-78
2022/02/23 00:10:57;;;;;;;15.30;10.73;;;;;;;3.61;66.45;93745.53;4999802;28;20595;-78
2022/02/23 00:13:23;;;;;;;22.90;12.48;;;;;;;3.69;66.47;93747.59;5001697;28;20069;-77
2022/02/23 00:15:48;;;;;;;18.25;10.50;;;;;;;3.61;66.91;93750.81;5001697;28;20132;-77
2022/02/23 00:18:17;;;;;;;19.42;12.05;;;;;;;3.63;65.93;93743.41;4998045;28;20412;-79
2022/02/23 00:20:42;;;;;;;23.50;12.05;;;;;;;3.50;66.13;93733.50;4994828;28;20053;-77
2022/02/23 00:23:08;;;;;;;19.63;12.15;;;;;;;3.58;66.46;93745.28;5001929;28;20044;-79
2022/02/23 00:25:34;;;;;;;22.33;11.02;;;;;;;3.63;66.45;93742.63;4998355;28;20021;-77
2022/02/23 00:27:59;;;;;;;18.27;10.73;;;;;;;3.79;66.16;93746.75;4997924;28;20500;-78
2022/02/23 00:30:25;;;;;;;18.95;10.82;;;;;;;3.78;64.84;93742.53;4986627;28;20149;-77
2022/02/23 00:32:51;;;;;;;22.70;11.38;;;;;;;3.75;65.22;93761.50;4997876;28;20053;-77
2022/02/23 00:35:16;;;;;;;18.08;10.88;;;;;;;3.61;64.99;93734.25;4993300;28;20617;-79
2022/02/23 00:37:42;;;;;;;18.30;10.05;;;;;;;3.71;65.28;93756.00;5001075;28;20029;-78
2022/02/23 00:40:08;;;;;;;15.90;9.35;;;;;;;3.66;65.75;93753.41;5004373;28;20516;-78
2022/02/23 00:42:33;;;;;;;18.88;10.88;;;;;;;3.80;65.71;93754.38;5001012;28;20462;-78
2022/02/23 00:44:59;;;;;;;18.75;10.50;;;;;;;3.82;65.06;93756.72;5002450;28;20038;-78
2022/02/23 00:47:24;;;;;;;18.55;10.75;;;;;;;3.77;65.13;93748.88;5002971;28;20042;-79
2022/02/23 00:49:50;;;;;;;24.30;11.38;;;;;;;3.82;65.20;93757.50;4999653;28;24231;-79
2022/02/23 00:52:19;;;;;;;21.40;12.07;;;;;;;3.86;64.87;93752.50;5000508;28;20045;-77
2022/02/23 00:54:45;;;;;;;19.48;11.13;;;;;;;3.72;64.43;93735.75;4998299;28;20037;-77
2022/02/23 00:57:10;;;;;;;16.27;9.32;;;;;;;3.80;64.40;93735.97;5002194;28;20127;-78
2022/02/23 00:59:36;;;;;;;18.42;11.65;;;;;;;3.99;63.90;93753.75;4997093;28;20540;-78
2022/02/23 01:02:02;;;;;;;20.90;11.20;;;;;;;3.83;64.33;93753.03;5018044;28;20560;-78
2022/02/23 01:04:27;;;;;;;15.82;9.70;;;;;;;3.92;64.45;93755.88;5000322;28;20033;-79
2022/02/23 01:06:52;;;;;;;15.73;9.05;;;;;;;3.93;64.07;93752.97;5004053;28;20049;-78
2022/02/23 01:09:18;;;;;;;15.65;9.02;;;;;;;3.83;64.53;93755.66;4992587;28;20050;-78
2022/02/23 01:11:44;;;;;;;17.48;10.00;;;;;;;3.69;64.36;93750.22;5002719;28;20103;-78
2022/02/23 01:14:10;;;;;;;19.05;9.98;;;;;;;3.46;64.31;93721.16;5001210;28;20092;-78
2022/02/23 01:16:36;;;;;;;18.45;9.90;;;;;;;3.54;65.11;93746.88;5004054;28;20806;-78
2022/02/23 01:19:04;;;;;;;19.23;13.18;;;;;;;3.59;65.39;93752.13;5012412;28;20055;-77
2022/02/23 01:21:29;;;;;;;16.73;10.07;;;;;;;3.48;65.82;93751.38;5006868;28;20042;-77
2022/02/23 01:23:55;;;;;;;18.25;10.45;;;;;;;3.43;65.81;93753.25;4996636;28;20076;-78
2022/02/23 01:26:21;;;;;;;14.07;10.23;;;;;;;3.33;66.08;93735.69;4999792;28;20042;-78
2022/02/23 01:28:46;;;;;;;20.48;10.73;;;;;;;3.45;65.97;93743.25;4994265;28;20104;-76
2022/02/23 01:31:12;;;;;;;15.75;10.32;;;;;;;3.46;65.82;93736.94;5002926;28;20420;-78
2022/02/23 01:33:37;;;;;;;20.13;10.23;;;;;;;3.63;65.38;93747.88;4999652;28;20067;-78
2022/02/23 01:36:03;;;;;;;16.13;9.77;;;;;;;3.39;65.56;93748.53;4996505;28;20488;-77
2022/02/23 01:38:31;;;;;;;17.25;10.52;;;;;;;3.27;65.91;93737.56;4999971;28;20091;-78
2022/02/23 01:40:57;;;;;;;16.45;10.15;;;;;;;3.36;65.53;93738.56;5000374;28;20116;-76
2022/02/23 01:43:22;;;;;;;17.35;10.35;;;;;;;3.35;65.69;93736.19;5016784;28;20090;-77
2022/02/23 01:45:48;;;;;;;18.27;9.80;;;;;;;3.30;65.47;93742.25;4995975;28;20073;-78
2022/02/23 01:48:13;;;;;;;18.50;10.63;;;;;;;3.21;65.65;93714.97;5001583;28;20092;-78
2022/02/23 01:50:41;;;;;;;16.08;10.10;;;;;;;3.44;64.84;93733.78;4992680;28;20409;-78
2022/02/23 01:53:07;;;;;;;16.02;9.77;;;;;;;3.67;64.78;93764.72;4998377;28;20719;-78
2022/02/23 01:55:32;;;;;;;19.63;9.60;;;;;;;3.55;64.13;93748.47;4994472;28;20022;-78
2022/02/23 01:57:58;;;;;;;15.00;8.82;;;;;;;3.53;64.32;93750.56;5005999;28;20503;-79
2022/02/23 02:00:28;;;;;;;13.80;8.48;;;;;;;3.54;64.49;93750.31;4995301;28;20781;-76
2022/02/23 02:02:54;;;;;;;24.42;11.68;;;;;;;3.72;64.23;93767.31;5001176;28;20045;-77
2022/02/23 02:05:20;;;;;;;28.45;12.82;;;;;;;3.72;63.99;93751.53;5002977;28;20061;-77
2022/02/23 02:07:46;;;;;;;19.35;10.10;;;;;;;3.69;63.69;93757.31;5004049;28;20029;-77
2022/02/23 02:10:11;;;;;;;17.85;9.07;;;;;;;3.73;63.44;93782.03;4991089;28;20041;-77
2022/02/23 02:12:37;;;;;;;17.17;9.85;;;;;;;3.51;64.14;93758.75;5005506;28;20091;-78
2022/02/23 02:15:04;;;;;;;16.20;8.27;;;;;;;3.57;63.82;93780.53;4994619;28;20042;-76
2022/02/23 02:17:30;;;;;;;14.70;8.20;;;;;;;3.63;64.24;93784.69;4998903;28;20033;-77
2022/02/23 02:19:56;;;;;;;16.63;9.35;;;;;;;3.67;64.17;93772.63;5002814;28;20377;-78
2022/02/23 02:22:21;;;;;;;16.02;9.48;;;;;;;3.75;63.98;93782.56;4995850;28;20419;-78
2022/02/23 02:24:47;;;;;;;12.00;8.02;;;;;;;3.72;63.24;93767.31;5002065;28;20404;-77
2022/02/23 02:27:15;;;;;;;19.30;8.65;;;;;;;3.76;62.82;93778.88;4995167;28;20037;-77
2022/02/23 02:29:42;;;;;;;14.52;7.93;;;;;;;3.84;62.89;93784.34;5000884;28;20076;-78
2022/02/23 02:32:09;;;;;;;16.05;9.48;;;;;;;4.02;62.96;93787.38;5001459;28;20108;-78
2022/02/23 02:34:35;;;;;;;20.60;9.35;;;;;;;3.91;62.20;93785.91;5002842;28;20472;-78
2022/02/23 02:37:00;;;;;;;15.23;9.65;;;;;;;3.72;62.41;93783.09;4999580;28;20042;-77
2022/02/23 02:39:26;;;;;;;14.63;8.95;;;;;;;3.78;62.81;93795.16;5001627;28;20042;-77
2022/02/23 02:41:53;;;;;;;18.05;9.98;;;;;;;3.89;62.37;93809.06;5003394;28;20533;-78
2022/02/23 02:44:18;;;;;;;17.88;9.82;;;;;;;3.93;62.71;93816.13;4996077;28;20618;-78
2022/02/23 02:46:45;;;;;;;19.92;9.25;;;;;;;3.97;62.08;93790.84;4998041;28;20381;-78
2022/02/23 02:49:13;;;;;;;13.45;8.00;;;;;;;4.12;61.61;93801.28;5005194;28;20704;-78
2022/02/23 02:51:39;;;;;;;13.35;8.73;;;;;;;4.21;62.06;93807.53;4994896;28;21177;-77
2022/02/23 02:54:06;;;;;;;15.32;9.60;;;;;;;4.28;61.07;93821.19;5002685;28;20573;-79
2022/02/23 02:56:32;;;;;;;13.40;9.00;;;;;;;4.15;60.59;93781.53;4999801;28;20057;-77
2022/02/23 02:58:57;;;;;;;14.63;8.52;;;;;;;4.43;60.60;93814.28;5001312;28;20479;-78
2022/02/23 03:01:25;;;;;;;14.48;7.95;;;;;;;4.39;60.06;93810.63;4996104;28;20025;-77
2022/02/23 03:03:52;;;;;;;17.02;8.90;;;;;;;4.27;59.94;93809.09;5003050;28;20054;-78
2022/02/23 03:06:18;;;;;;;13.65;7.72;;;;;;;4.26;60.55;93810.16;4995821;28;20416;-77
2022/02/23 03:08:45;;;;;;;13.10;8.07;;;;;;;4.03;59.99;93778.44;4999430;28;20042;-77
2022/02/23 03:11:11;;;;;;;13.77;8.77;;;;;;;4.06;60.31;93778.69;4996800;28;20304;-78
2022/02/23 03:13:42;;;;;;;21.15;8.95;;;;;;;4.29;60.18;93827.25;5003283;28;20029;-77
2022/02/23 03:16:12;;;;;;;14.20;8.68;;;;;;;4.35;60.18;93818.28;4997790;28;20043;-77
2022/02/23 03:18:38;;;;;;;15.35;8.32;;;;;;;4.14;59.80;93812.34;5004796;28;20614;-77
2022/02/23 03:21:04;;;;;;;14.55;8.10;;;;;;;4.13;60.07;93816.03;4993061;28;20040;-78
2022/02/23 03:23:31;;;;;;;16.92;9.40;;;;;;;4.14;59.88;93832.59;5001882;28;20034;-77
2022/02/23 03:25:56;;;;;;;13.82;8.25;;;;;;;4.11;59.93;93822.63;5001800;28;20064;-78
2022/02/23 03:28:22;;;;;;;12.13;6.55;;;;;;;4.05;60.00;93818.44;4998270;28;20030;-78
2022/02/23 03:30:48;;;;;;;12.00;7.13;;;;;;;3.98;60.13;93813.47;4996341;28;20038;-79
2022/02/23 03:33:14;;;;;;;10.45;6.95;;;;;;;4.07;60.36;93843.44;4992643;28;20038;-79
2022/02/23 03:35:41;;;;;;;10.68;7.30;;;;;;;4.00;60.28;93819.25;4987150;28;20084;-79
2022/02/23 03:38:08;;;;;;;12.98;7.43;;;;;;;4.20;60.49;93842.06;5001700;28;20056;-77
2022/02/23 03:40:33;;;;;;;10.52;7.40;;;;;;;4.27;59.44;93816.97;4997936;28;20660;-78
2022/02/23 03:43:00;;;;;;;9.20;6.13;;;;;;;4.36;59.37;93835.66;4997820;28;20041;-77
2022/02/23 03:45:25;;;;;;;19.15;9.95;;;;;;;4.13;59.29;93784.44;4992560;28;20053;-78
2022/02/23 03:47:51;;;;;;;13.63;7.55;;;;;;;4.35;59.42;93846.47;5007821;28;20037;-77
2022/02/23 03:50:16;;;;;;;12.88;7.57;;;;;;;4.08;59.20;93829.22;4992082;28;20053;-77
2022/02/23 03:52:42;;;;;;;13.15;7.10;;;;;;;4.20;59.23;93853.38;5005956;28;20610;-78
2022/02/23 03:55:09;;;;;;;12.30;7.97;;;;;;;4.25;59.20;93849.91;4999865;28;20591;-78
2022/02/23 03:57:35;;;;;;;11.25;7.43;;;;;;;4.10;59.37;93824.47;4997262;28;20034;-77
2022/02/23 04:00:03;;;;;;;12.73;7.72;;;;;;;4.29;59.41;93837.78;5004104;28;20566;-78
2022/02/23 04:02:28;;;;;;;11.60;8.38;;;;;;;4.34;58.83;93826.47;4999506;28;20041;-80
2022/02/23 04:04:54;;;;;;;14.35;7.43;;;;;;;4.16;58.53;93841.78;5005618;28;20383;-78
2022/02/23 04:07:19;;;;;;;10.65;6.85;;;;;;;4.21;58.98;93859.41;5006832;28;20100;-78
2022/02/23 04:09:48;;;;;;;14.82;8.20;;;;;;;4.07;59.14;93843.44;5002159;28;20049;-78
2022/02/23 04:12:14;;;;;;;11.07;7.43;;;;;;;3.81;59.61;93844.63;5002317;28;20044;-78
2022/02/23 04:14:39;;;;;;;10.48;6.50;;;;;;;3.97;60.17;93871.63;5000638;28;20703;-77
2022/02/23 04:17:05;;;;;;;10.80;7.25;;;;;;;4.08;59.71;93866.06;5000083;28;20029;-79
2022/02/23 04:19:31;;;;;;;14.32;7.63;;;;;;;4.20;59.47;93884.16;5010698;28;20036;-77
2022/02/23 04:21:57;;;;;;;14.00;8.05;;;;;;;4.06;59.57;93883.94;5006947;28;20038;-76
2022/02/23 04:24:22;;;;;;;13.90;7.88;;;;;;;3.89;60.03;93883.50;5000434;28;20084;-77
2022/02/23 04:26:47;;;;;;;17.40;9.02;;;;;;;3.67;60.68;93875.19;5000177;28;20041;-78
2022/02/23 04:29:14;;;;;;;9.98;7.13;;;;;;;3.81;60.86;93879.59;4995315;28;20028;-77
2022/02/23 04:31:41;;;;;;;12.10;8.57;;;;;;;3.95;60.37;93902.72;5003657;28;20111;-78
2022/02/23 04:34:06;;;;;;;13.02;7.78;;;;;;;3.87;60.54;93900.63;5008236;28;20038;-77
2022/02/23 04:36:32;;;;;;;9.88;7.18;;;;;;;3.85;60.57;93908.78;4999679;28;20033;-77
2022/02/23 04:38:57;;;;;;;13.68;7.32;;;;;;;3.35;60.85;93884.19;5005748;28;20619;-78
2022/02/23 04:41:22;;;;;;;10.85;6.88;;;;;;;3.24;62.00;93903.66;4991720;28;20112;-78
2022/02/23 04:43:48;;;;;;;12.65;8.38;;;;;;;3.21;62.95;93911.28;5002709;28;20029;-78
2022/02/23 04:46:14;;;;;;;13.52;7.18;;;;;;;3.31;62.91;93919.97;4993648;28;20049;-77
2022/02/23 04:48:42;;;;;;;15.68;7.82;;;;;;;2.94;63.22;93882.66;5003354;28;20559;-78
2022/02/23 04:51:14;;;;;;;10.73;7.40;;;;;;;3.32;63.24;93921.53;4994284;28;20049;-78
2022/02/23 04:53:39;;;;;;;13.35;7.85;;;;;;;3.37;63.00;93932.06;5014287;28;20641;-77
2022/02/23 04:56:06;;;;;;;12.25;6.63;;;;;;;3.46;62.88;93928.88;5001747;28;20037;-77
2022/02/23 04:58:32;;;;;;;13.32;8.23;;;;;;;3.32;62.82;93932.06;5009215;28;20086;-77
2022/02/23 05:00:58;;;;;;;12.00;7.47;;;;;;;3.37;62.49;93945.19;4993210;28;20038;-78
2022/02/23 05:03:23;;;;;;;12.07;7.72;;;;;;;3.33;62.49;93925.72;4999264;28;20401;-77
2022/02/23 05:05:50;;;;;;;16.63;8.85;;;;;;;3.43;62.07;93938.06;4999243;28;20117;-78
2022/02/23 05:08:19;;;;;;;12.82;8.05;;;;;;;3.44;62.14;93949.38;5002467;28;20028;-77
2022/02/23 05:10:45;;;;;;;14.43;8.02;;;;;;;3.42;62.28;93948.88;5000667;28;20037;-78
2022/02/23 05:13:10;;;;;;;13.73;9.20;;;;;;;3.50;62.01;93957.00;5002887;28;20045;-78
2022/02/23 05:15:36;;;;;;;13.85;8.43;;;;;;;3.44;61.47;93936.22;5001539;28;20046;-78
2022/02/23 05:18:04;;;;;;;14.25;8.80;;;;;;;3.37;61.27;93945.19;4995832;28;20046;-77
2022/02/23 05:20:30;;;;;;;11.43;7.47;;;;;;;3.53;61.84;93974.06;5003477;28;20038;-78
2022/02/23 05:22:55;;;;;;;9.40;7.40;;;;;;;3.52;61.66;93967.25;4999027;28;20032;-77
2022/02/23 05:25:21;;;;;;;12.52;7.20;;;;;;;3.52;61.32;93977.78;4999902;28;20044;-76
2022/02/23 05:27:46;;;;;;;15.05;8.55;;;;;;;3.58;61.28;93987.22;5003055;28;20038;-77
2022/02/23 05:30:12;;;;;;;9.80;7.20;;;;;;;3.51;61.37;93990.13;5003671;28;20628;-80
2022/02/23 05:32:38;;;;;;;14.75;7.35;;;;;;;3.41;61.35;93969.13;4990867;28;20779;-78
2022/02/23 05:35:05;;;;;;;11.80;7.80;;;;;;;3.68;61.33;94000.38;5001143;28;20033;-78
2022/02/23 05:37:31;;;;;;;12.50;7.75;;;;;;;3.61;61.07;93999.88;4997607;28;20037;-78
2022/02/23 05:39:57;;;;;;;12.30;8.50;;;;;;;3.62;60.95;93990.94;5013525;28;20072;-78
2022/02/23 05:42:22;;;;;;;14.23;7.93;;;;;;;3.71;60.67;93997.22;4998973;28;20631;-77
2022/02/23 05:44:48;;;;;;;10.73;6.97;;;;;;;3.54;60.50;93988.81;5002377;28;20067;-79
2022/02/23 05:47:14;;;;;;;14.23;8.15;;;;;;;3.28;61.16;94012.47;4995555;28;20038;-78
2022/02/23 05:49:42;;;;;;;15.13;8.30;;;;;;;3.31;61.03;94005.91;5002200;28;20041;-77
2022/02/23 05:52:07;;;;;;;17.35;8.48;;;;;;;3.04;61.73;94021.91;4999724;28;20041;-77
2022/02/23 05:54:33;;;;;;;13.15;7.85;;;;;;;2.85;62.20;93999.81;5001614;28;20519;-78
2022/02/23 05:57:00;;;;;;;10.15;6.93;;;;;;;3.04;62.40;94029.03;4995537;28;20033;-79
2022/02/23 05:59:26;;;;;;;12.52;8.55;;;;;;;2.96;62.96;94006.66;5001600;28;20038;-77
2022/02/23 06:01:52;;;;;;;13.07;8.00;;;;;;;3.06;62.20;94032.97;5000687;28;20396;-77
2022/02/23 06:04:17;;;;;;;16.17;7.95;;;;;;;2.85;62.28;93999.81;5003507;28;20030;-78
2022/02/23 06:06:43;;;;;;;15.63;7.60;;;;;;;3.05;62.04;94039.25;4999021;28;20068;-78
2022/02/23 06:09:08;;;;;;;9.70;6.85;;;;;;;2.99;62.60;94044.78;4999412;28;20033;-77
2022/02/23 06:11:36;;;;;;;13.32;8.00;;;;;;;3.03;62.21;94045.84;5006346;28;20049;-78
2022/02/23 06:14:02;;;;;;;13.70;8.57;;;;;;;3.03;62.35;94033.50;4999813;28;20025;-78
2022/02/23 06:16:27;;;;;;;11.32;7.97;;;;;;;3.12;62.10;94055.59;4997757;28;20391;-78
2022/02/23 06:18:55;;;;;;;17.17;9.20;;;;;;;3.20;62.10;94064.78;5006671;28;20124;-77
2022/02/23 06:21:21;;;;;;;13.63;8.43;;;;;;;3.19;62.10;94069.25;4993138;28;20061;-77
2022/02/23 06:23:47;;;;;;;13.60;8.02;;;;;;;3.11;62.17;94072.38;5004378;28;20048;-78
2022/02/23 06:26:12;;;;;;;12.07;7.68;;;;;;;3.22;62.16;94076.63;4999449;28;20532;-77
2022/02/23 06:28:38;;;;;;;16.88;9.52;;;;;;;3.24;62.06;94077.13;5000675;28;20018;-77
2022/02/23 06:31:05;;;;;;;25.35;11.52;;;;;;;3.24;62.07;94078.97;5005568;28;20134;-77
2022/02/23 06:33:31;;;;;;;18.40;9.80;;;;;;;2.79;61.75;94003.50;4990283;28;20045;-77
2022/02/23 06:35:56;;;;;;;19.00;8.85;;;;;;;2.90;62.21;94060.25;4998028;28;20633;-78
2022/02/23 06:38:21;;;;;;;16.90;9.10;;;;;;;3.04;62.76;94074.47;5004613;28;20108;-77
2022/02/23 06:40:50;;;;;;;18.98;10.73;;;;;;;3.22;62.79;94094.22;4999671;28;20023;-77
2022/02/23 06:43:17;;;;;;;18.90;10.57;;;;;;;3.30;63.27;94096.34;4993641;28;20049;-78
2022/02/23 06:45:48;;;;;;;14.45;9.60;;;;;;;3.25;62.17;94064.78;5003159;28;20053;-77
2022/02/23 06:48:14;;;;;;;12.77;7.97;;;;;;;3.50;62.06;94098.22;4995245;28;20045;-77
2022/02/23 06:50:39;;;;;;;12.73;8.38;;;;;;;3.56;62.05;94097.16;5003149;28;20037;-78
2022/02/23 06:53:06;;;;;;;14.40;9.57;;;;;;;3.48;61.40;94082.69;4991484;28;20156;-79
2022/02/23 06:55:32;;;;;;;15.95;8.85;;;;;;;3.42;61.41;94085.59;5002649;28;20026;-76
2022/02/23 06:57:58;;;;;;;14.38;8.43;;;;;;;3.28;62.38;94099.22;4998949;28;20974;-77
2022/02/23 07:00:25;;;;;;;15.80;8.90;;;;;;;3.22;61.89;94083.72;4993940;28;20038;-77
2022/02/23 07:02:52;;;;;;;17.08;9.35;;;;;;;3.34;62.05;94106.06;4997897;28;20037;-77
2022/02/23 07:05:19;;;;;;;11.57;6.63;;;;;;;3.38;62.35;94091.34;4997571;28;20110;-77
2022/02/23 07:07:45;;;;;;;12.75;7.68;;;;;;;3.27;62.10;94089.78;5013896;28;20029;-76
2022/02/23 07:10:20;;;;;;;11.55;7.13;;;;;;;3.19;62.10;94078.97;4997536;28;20036;-77
2022/02/23 07:12:46;;;;;;;15.63;8.43;;;;;;;3.15;62.89;94091.84;4995729;28;20045;-78
2022/02/23 07:15:11;;;;;;;10.43;6.38;;;;;;;3.25;62.86;94097.13;4997697;28;20845;-77
2022/02/23 07:17:37;;;;;;;14.07;7.47;;;;;;;3.11;63.37;94093.41;4996244;28;20045;-77
2022/02/23 07:20:06;;;;;;;11.63;7.38;;;;;;;3.07;63.83;94075.81;4995210;28;20741;-77
2022/02/23 07:22:31;;;;;;;9.35;6.90;;;;;;;3.17;63.62;94070.56;5006238;28;20040;-77
2022/02/23 07:24:58;;;;;;;8.80;6.25;;;;;;;3.48;63.31;94102.97;5004664;28;20038;-76
2022/02/23 07:27:26;;;;;;;12.50;7.32;;;;;;;3.40;63.11;94088.47;5007476;28;20041;-78
2022/02/23 07:29:52;;;;;;;9.85;7.75;;;;;;;3.22;63.06;94086.34;5004622;28;20033;-78
2022/02/23 07:32:19;;;;;;;14.85;7.15;;;;;;;3.51;63.29;94103.22;5004985;28;20028;-77
2022/02/23 07:34:47;;;;;;;12.52;6.95;;;;;;;3.34;62.66;94057.97;5004341;28;20036;-77
2022/02/23 07:37:13;;;;;;;11.43;7.32;;;;;;;3.54;62.96;94097.44;5002535;28;20030;-78
2022/02/23 07:39:40;;;;;;;13.50;7.43;;;;;;;3.68;63.70;94100.31;5005475;28;20496;-79
2022/02/23 07:42:07;;;;;;;10.10;7.30;;;;;;;3.84;62.82;94107.16;5004152;28;20057;-77
2022/02/23 07:44:33;;;;;;;9.52;6.78;;;;;;;3.94;61.86;94101.91;5005846;28;20041;-78
2022/02/23 07:46:59;;;;;;;12.95;7.80;;;;;;;3.83;61.57;94095.06;5005364;28;20084;-78
2022/02/23 07:49:28;;;;;;;11.60;6.40;;;;;;;3.95;61.66;94113.22;5006744;28;20128;-77
2022/02/23 07:51:54;;;;;;;16.70;7.30;;;;;;;3.98;61.04;94110.06;5007039;28;20044;-76
2022/02/23 07:54:20;;;;;;;10.70;6.80;;;;;;;3.87;61.00;94106.63;5000752;28;20724;-77
2022/02/23 07:56:45;;;;;;;16.20;8.15;;;;;;;3.93;61.51;94110.84;5006207;28;20476;-77
2022/02/23 07:59:11;;;;;;;13.02;7.30;;;;;;;3.92;62.58;94130.31;5005960;28;20048;-77
2022/02/23 08:01:38;;;;;;;11.65;7.43;;;;;;;4.11;61.76;94123.47;5017399;28;20017;-78
2022/02/23 08:04:05;;;;;;;10.65;7.38;;;;;;;3.89;61.41;94125.59;5002826;28;20033;-78
2022/02/23 08:06:32;;;;;;;18.92;8.38;;;;;;;3.97;61.54;94135.56;5002235;28;20054;-77
2022/02/23 08:08:58;;;;;;;12.52;7.47;;;;;;;3.76;61.35;94113.75;5002126;28;20385;-78
2022/02/23 08:11:29;;;;;;;12.70;7.25;;;;;;;3.81;61.56;94123.50;5000556;28;20124;-77
2022/02/23 08:13:58;;;;;;;15.50;9.10;;;;;;;3.70;62.75;94132.41;5005425;28;20033;-77
2022/02/23 08:22:04;;;;;;;15.40;8.05;;;;;;;3.71;63.09;94120.84;5000142;28;20095;-78
2022/02/23 08:24:30;;;;;;;9.77;6.90;;;;;;;3.83;62.49;94111.63;5002796;28;20053;-77
2022/02/23 08:26:58;;;;;;;16.15;8.98;;;;;;;3.84;62.28;94101.91;4996895;28;20056;-79
2022/02/23 08:29:24;;;;;;;14.57;7.88;;;;;;;4.10;62.27;94129.81;5003434;28;20337;-77
2022/02/23 08:31:49;;;;;;;12.55;7.28;;;;;;;4.11;61.47;94101.63;4996873;28;20029;-78
2022/02/23 08:34:17;;;;;;;11.65;7.43;;;;;;;4.31;60.33;94129.81;5000771;28;20041;-78
2022/02/23 08:36:43;;;;;;;10.60;6.68;;;;;;;4.28;60.37;94123.97;5003840;28;20041;-77
2022/02/23 08:39:11;;;;;;;11.38;6.43;;;;;;;4.36;60.68;94113.97;4999610;28;20578;-78
2022/02/23 08:41:37;;;;;;;8.25;6.18;;;;;;;4.50;59.38;94102.63;5000531;28;20073;-78
2022/02/23 08:44:06;;;;;;;12.38;7.50;;;;;;;4.65;59.33;94125.50;4999548;28;20972;-79
2022/02/23 08:46:40;;;;;;;10.13;6.85;;;;;;;4.59;60.33;94108.94;4998341;28;20022;-78
2022/02/23 08:49:09;;;;;;;14.63;7.78;;;;;;;4.82;59.39;94115.44;4999190;28;20513;-78
2022/02/23 08:51:38;;;;;;;15.68;7.85;;;;;;;5.08;59.18;94124.84;4995336;28;20079;-77
2022/02/23 08:54:05;;;;;;;11.40;6.97;;;;;;;5.05;58.08;94122.72;5003606;28;20095;-77
2022/02/23 08:56:31;;;;;;;12.98;7.57;;;;;;;4.97;57.79;94104.84;4996979;28;20030;-78
2022/02/23 08:58:57;;;;;;;11.23;6.78;;;;;;;4.99;57.88;94109.84;5002201;28;20040;-77
2022/02/23 09:01:25;;;;;;;12.80;8.40;;;;;;;5.10;58.45;94114.00;4996692;28;20042;-77
2022/02/23 09:03:52;;;;;;;9.57;6.20;;;;;;;4.81;57.89;94084.06;5015042;28;20040;-78
2022/02/23 09:06:18;;;;;;;11.93;6.63;;;;;;;4.69;58.97;94089.69;4995657;28;20046;-79
2022/02/23 09:08:44;;;;;;;15.13;7.95;;;;;;;4.79;57.82;94102.81;5002308;28;20049;-77
2022/02/23 09:11:12;;;;;;;10.88;7.05;;;;;;;5.11;57.29;94128.75;4998858;28;20191;-78
2022/02/23 09:13:37;;;;;;;13.60;6.97;;;;;;;5.29;57.36;94119.44;5001393;28;20033;-78
2022/02/23 09:16:03;;;;;;;14.85;7.57;;;;;;;5.23;57.40;94112.63;5002333;28;20033;-78
2022/02/23 09:18:29;;;;;;;10.20;6.80;;;;;;;5.21;56.87;94131.34;5000369;28;20504;-78
2022/02/23 09:20:54;;;;;;;11.95;7.22;;;;;;;5.27;56.06;94124.22;5001492;28;20140;-78
2022/02/23 09:23:21;;;;;;;10.68;6.35;;;;;;;5.39;55.75;94128.09;4998320;28;20405;-78
2022/02/23 09:25:46;;;;;;;26.02;13.93;;;;;;;5.22;55.88;94074.91;5004193;28;20709;-78
2022/02/23 09:28:12;;;;;;;11.15;7.50;;;;;;;5.42;55.73;94098.53;5002629;28;20165;-77
2022/02/23 09:30:37;;;;;;;11.30;6.18;;;;;;;5.56;55.73;94119.81;5003353;28;20044;-78
2022/02/23 09:33:02;;;;;;;9.32;6.10;;;;;;;5.65;54.81;94128.72;5002877;28;20396;-78
2022/02/23 09:35:28;;;;;;;13.35;7.68;;;;;;;5.62;55.16;94123.22;4994093;28;20033;-77
2022/02/23 09:37:56;;;;;;;13.75;6.45;;;;;;;5.54;55.27;94119.28;5002176;28;20041;-77
2022/02/23 09:40:22;;;;;;;11.93;6.40;;;;;;;5.76;54.75;94127.59;4997079;28;20137;-77
2022/02/23 09:42:47;;;;;;;12.25;6.57;;;;;;;5.48;55.60;94138.88;5005868;28;20048;-78
2022/02/23 09:45:13;;;;;;;12.07;6.70;;;;;;;5.54;55.17;94129.84;5013949;28;20404;-77
2022/02/23 09:47:39;;;;;;;10.52;7.43;;;;;;;5.78;55.29;94130.72;4990922;28;20033;-78
2022/02/23 09:50:08;;;;;;;9.38;6.78;;;;;;;5.87;54.25;94139.63;5017866;28;20056;-78
2022/02/23 09:52:34;;;;;;;15.18;7.18;;;;;;;5.75;54.01;94141.84;4994349;28;20513;-77
2022/02/23 09:55:02;;;;;;;12.38;7.28;;;;;;;5.57;54.00;94129.31;4997956;28;20038;-79
2022/02/23 09:57:28;;;;;;;8.80;5.13;;;;;;;5.63;53.96;94136.13;5001934;28;20562;-78
2022/02/23 09:59:54;;;;;;;11.50;6.53;;;;;;;5.66;54.30;94132.94;4995780;28;20065;-77
2022/02/23 10:02:22;;;;;;;9.98;6.07;;;;;;;5.87;54.21;94150.19;4997158;28;20044;-78
2022/02/23 10:04:49;;;;;;;11.90;6.30;;;;;;;5.79;53.43;94142.09;5004997;28;20112;-77
2022/02/23 10:07:15;;;;;;;11.35;6.00;;;;;;;5.69;53.02;94142.94;4994891;28;20046;-78
2022/02/23 10:09:51;;;;;;;10.57;6.15;;;;;;;5.37;53.48;94097.78;5000020;28;20778;-77
2022/02/23 10:12:18;;;;;;;9.00;5.32;;;;;;;5.66;53.39;94138.22;5014058;28;20235;-79
2022/02/23 10:14:44;;;;;;;10.70;6.85;;;;;;;5.72;53.12;94128.41;5005380;28;20495;-78
2022/02/23 10:17:11;;;;;;;11.63;5.72;;;;;;;5.71;54.42;94135.53;5008779;28;20925;-77
2022/02/23 10:19:48;;;;;;;7.68;5.20;;;;;;;5.75;53.50;94117.31;4999535;28;20812;-77
2022/02/23 10:22:14;;;;;;;10.15;5.93;;;;;;;6.09;52.34;94136.56;5018891;28;20042;-78
2022/02/23 10:24:39;;;;;;;8.50;5.68;;;;;;;5.87;52.14;94113.25;5002332;28;20116;-78
2022/02/23 10:27:13;;;;;;;10.18;4.88;;;;;;;5.94;52.72;94129.56;4996328;28;20049;-78
2022/02/23 10:29:54;;;;;;;10.68;6.03;;;;;;;5.79;53.16;94099.84;4998395;28;20041;-78
2022/02/23 10:32:25;;;;;;;7.93;4.95;;;;;;;5.91;52.10;94138.03;5006334;28;20119;-78
2022/02/23 10:34:53;;;;;;;9.73;5.43;;;;;;;5.86;52.97;94110.91;5006060;28;20121;-77
2022/02/23 10:37:21;;;;;;;9.52;5.57;;;;;;;5.98;52.90;94129.78;5000295;28;20124;-77
2022/02/23 10:39:50;;;;;;;11.23;5.43;;;;;;;5.88;52.90;94135.16;5004186;28;20148;-78
2022/02/23 10:42:20;;;;;;;11.27;5.65;;;;;;;5.75;52.45;94119.94;4997106;28;20500;-78
2022/02/23 10:44:48;;;;;;;7.55;4.85;;;;;;;5.76;52.52;94124.97;4994807;28;20045;-77
2022/02/23 10:47:36;;;;;;;8.68;5.15;;;;;;;5.74;52.33;94121.78;5002833;28;20092;-78
2022/02/23 10:50:02;;;;;;;6.25;4.90;;;;;;;5.85;51.96;94125.16;4995018;28;20432;-77
2022/02/23 10:52:29;;;;;;;7.15;5.00;;;;;;;5.81;51.91;94119.66;5011413;28;20039;-77
2022/02/23 10:55:19;;;;;;;5.95;4.38;;;;;;;5.89;51.95;94132.25;4999505;28;20037;-77
2022/02/23 10:57:56;;;;;;;6.97;4.85;;;;;;;5.74;51.51;94107.81;4999055;28;20044;-78
2022/02/23 11:00:23;;;;;;;8.77;5.28;;;;;;;5.86;51.77;94127.53;4996908;28;20045;-78
2022/02/23 11:02:50;;;;;;;6.72;4.57;;;;;;;5.77;50.78;94113.34;4998999;28;21083;-77
2022/02/23 11:05:15;;;;;;;7.63;5.18;;;;;;;5.87;51.27;94115.88;5001287;28;20533;-79
2022/02/23 11:07:45;;;;;;;11.10;5.53;;;;;;;6.05;50.92;94113.66;5003319;28;20033;-80
2022/02/23 11:10:14;;;;;;;11.10;5.72;;;;;;;6.08;51.34;94113.88;4997428;28;20041;-77
2022/02/23 11:12:45;;;;;;;8.65;5.20;;;;;;;5.99;50.47;94116.31;4998770;28;20041;-77
2022/02/23 11:15:16;;;;;;;11.82;6.10;;;;;;;6.09;51.19;94119.94;5000533;28;20472;-77
2022/02/23 11:17:45;;;;;;;10.85;5.20;;;;;;;6.19;51.38;94104.03;4998255;28;20042;-77
2022/02/23 11:20:16;;;;;;;9.68;5.57;;;;;;;6.17;51.11;94100.88;4998279;28;20030;-78
2022/02/23 11:22:42;;;;;;;6.25;3.85;;;;;;;6.19;50.76;94093.47;5001578;28;20136;-78
2022/02/23 11:25:08;;;;;;;6.93;4.75;;;;;;;6.13;50.80;94086.63;5001174;28;20566;-77
2022/02/23 11:27:36;;;;;;;7.43;5.78;;;;;;;6.40;50.59;94100.94;5000305;28;20046;-78
2022/02/23 11:30:05;;;;;;;9.70;4.85;;;;;;;6.28;49.82;94107.66;4998301;28;20044;-77
2022/02/23 11:32:32;;;;;;;11.02;3.72;;;;;;;6.21;49.40;94101.91;5011518;28;20307;-78
2022/02/23 11:34:58;;;;;;;5.32;3.83;;;;;;;6.19;49.19;94085.56;5002536;28;20020;-78
2022/02/23 11:37:29;;;;;;;8.85;4.55;;;;;;;6.30;48.73;94106.31;4999464;28;20908;-78